Terminal Aerodrome Forecast
Issued by NWS Sterling, VA

Current Version | Previous Version | Graphics & Text | Print | Product List | Glossary On
Versions: 1 2 3 4 5 6 7 8 9 10 11 12 13 14 15 16 17 18 19 20 21 22 23 24 25 26 27 28 29
526
FTUS41 KLWX 210859 AAA
TAFDCA
TAF AMD
KDCA 210859Z 2109/2206 VRB03KT 2SM -DZ BR BKN003 OVC005
     FM211400 16004KT 5SM -DZ BR BKN008 OVC015
     FM211800 16004KT P6SM BKN010 OVC015
     FM212300 15004KT 5SM BR BKN005 OVC008=

USA.gov is the U.S. government's official web portal to all federal, state and local government web resources and services.